sensor_id;sensor_type;location;lat;lon;timestamp;temperature;humidity
7666;DHT22;3875;46.562;4.898;2023-02-28T00:01:21;1.80;71.40
7666;DHT22;3875;46.562;4.898;2023-02-28T00:03:47;1.80;71.40
7666;DHT22;3875;46.562;4.898;2023-02-28T00:06:12;1.80;71.10
7666;DHT22;3875;46.562;4.898;2023-02-28T00:08:38;1.80;71.10
7666;DHT22;3875;46.562;4.898;2023-02-28T00:11:12;1.80;71.00
7666;DHT22;3875;46.562;4.898;2023-02-28T00:13:40;1.90;71.00
7666;DHT22;3875;46.562;4.898;2023-02-28T00:16:13;1.90;70.90
7666;DHT22;3875;46.562;4.898;2023-02-28T00:18:40;1.90;70.80
7666;DHT22;3875;46.562;4.898;2023-02-28T00:21:07;1.90;70.70
7666;DHT22;3875;46.562;4.898;2023-02-28T00:23:33;1.90;70.80
7666;DHT22;3875;46.562;4.898;2023-02-28T00:25:59;1.90;70.90
7666;DHT22;3875;46.562;4.898;2023-02-28T00:28:25;1.90;70.70
7666;DHT22;3875;46.562;4.898;2023-02-28T00:30:51;1.90;70.70
7666;DHT22;3875;46.562;4.898;2023-02-28T00:33:16;1.80;70.50
7666;DHT22;3875;46.562;4.898;2023-02-28T00:35:42;1.80;70.60
7666;DHT22;3875;46.562;4.898;2023-02-28T00:38:09;1.80;70.70
7666;DHT22;3875;46.562;4.898;2023-02-28T00:40:34;1.80;70.60
7666;DHT22;3875;46.562;4.898;2023-02-28T00:43:00;1.80;70.60
7666;DHT22;3875;46.562;4.898;2023-02-28T00:45:26;1.80;70.60
7666;DHT22;3875;46.562;4.898;2023-02-28T00:47:51;1.80;70.70
7666;DHT22;3875;46.562;4.898;2023-02-28T00:50:18;1.80;71.00
7666;DHT22;3875;46.562;4.898;2023-02-28T00:52:45;1.80;71.10
7666;DHT22;3875;46.562;4.898;2023-02-28T00:55:11;1.70;71.00
7666;DHT22;3875;46.562;4.898;2023-02-28T00:57:36;1.70;70.80
7666;DHT22;3875;46.562;4.898;2023-02-28T01:00:03;1.70;71.10
7666;DHT22;3875;46.562;4.898;2023-02-28T01:02:30;1.70;70.80
7666;DHT22;3875;46.562;4.898;2023-02-28T01:04:55;1.70;70.80
7666;DHT22;3875;46.562;4.898;2023-02-28T01:07:22;1.70;71.00
7666;DHT22;3875;46.562;4.898;2023-02-28T01:09:48;1.70;70.70
7666;DHT22;3875;46.562;4.898;2023-02-28T01:12:14;1.70;70.80
7666;DHT22;3875;46.562;4.898;2023-02-28T01:14:39;1.70;71.00
7666;DHT22;3875;46.562;4.898;2023-02-28T01:17:05;1.70;71.20
7666;DHT22;3875;46.562;4.898;2023-02-28T01:19:31;1.60;71.10
7666;DHT22;3875;46.562;4.898;2023-02-28T01:22:00;1.60;71.00
7666;DHT22;3875;46.562;4.898;2023-02-28T01:24:26;1.60;71.10
7666;DHT22;3875;46.562;4.898;2023-02-28T01:26:52;1.60;71.20
7666;DHT22;3875;46.562;4.898;2023-02-28T01:29:17;1.60;71.00
7666;DHT22;3875;46.562;4.898;2023-02-28T01:31:43;1.60;70.80
7666;DHT22;3875;46.562;4.898;2023-02-28T01:34:09;1.60;70.80
7666;DHT22;3875;46.562;4.898;2023-02-28T01:36:34;1.60;70.60
7666;DHT22;3875;46.562;4.898;2023-02-28T01:39:01;1.60;71.10
7666;DHT22;3875;46.562;4.898;2023-02-28T01:41:29;1.60;70.60
7666;DHT22;3875;46.562;4.898;2023-02-28T01:44:02;1.60;70.70
7666;DHT22;3875;46.562;4.898;2023-02-28T01:46:30;1.60;70.80
7666;DHT22;3875;46.562;4.898;2023-02-28T01:49:12;1.60;70.90
7666;DHT22;3875;46.562;4.898;2023-02-28T01:51:42;1.60;70.60
7666;DHT22;3875;46.562;4.898;2023-02-28T01:54:14;1.60;70.90
7666;DHT22;3875;46.562;4.898;2023-02-28T01:56:51;1.60;70.80
7666;DHT22;3875;46.562;4.898;2023-02-28T01:59:28;1.60;70.70
7666;DHT22;3875;46.562;4.898;2023-02-28T02:01:55;1.60;70.60
7666;DHT22;3875;46.562;4.898;2023-02-28T02:04:23;1.60;70.80
7666;DHT22;3875;46.562;4.898;2023-02-28T02:06:51;1.60;71.00
7666;DHT22;3875;46.562;4.898;2023-02-28T02:09:17;1.50;71.20
7666;DHT22;3875;46.562;4.898;2023-02-28T02:11:44;1.50;71.40
7666;DHT22;3875;46.562;4.898;2023-02-28T02:14:35;1.50;71.70
7666;DHT22;3875;46.562;4.898;2023-02-28T02:25:35;1.40;72.20
7666;DHT22;3875;46.562;4.898;2023-02-28T02:28:22;1.30;72.70
7666;DHT22;3875;46.562;4.898;2023-02-28T02:34:04;1.30;72.70
7666;DHT22;3875;46.562;4.898;2023-02-28T02:37:00;1.20;72.80
7666;DHT22;3875;46.562;4.898;2023-02-28T02:40:09;1.20;72.80
7666;DHT22;3875;46.562;4.898;2023-02-28T02:45:34;1.20;72.90
7666;DHT22;3875;46.562;4.898;2023-02-28T02:48:04;1.10;72.80
7666;DHT22;3875;46.562;4.898;2023-02-28T02:50:48;1.10;72.90
7666;DHT22;3875;46.562;4.898;2023-02-28T02:53:18;1.10;73.00
7666;DHT22;3875;46.562;4.898;2023-02-28T02:55:47;1.10;72.90
7666;DHT22;3875;46.562;4.898;2023-02-28T02:58:20;1.00;73.10
7666;DHT22;3875;46.562;4.898;2023-02-28T03:00:51;1.00;73.00
7666;DHT22;3875;46.562;4.898;2023-02-28T03:03:19;1.00;73.00
7666;DHT22;3875;46.562;4.898;2023-02-28T03:05:57;1.00;72.90
7666;DHT22;3875;46.562;4.898;2023-02-28T03:08:25;0.90;72.80
7666;DHT22;3875;46.562;4.898;2023-02-28T03:10:56;0.90;73.00
7666;DHT22;3875;46.562;4.898;2023-02-28T03:19:23;0.80;73.00
7666;DHT22;3875;46.562;4.898;2023-02-28T03:22:09;0.80;72.90
7666;DHT22;3875;46.562;4.898;2023-02-28T03:30:35;0.70;73.10
7666;DHT22;3875;46.562;4.898;2023-02-28T03:33:26;0.70;73.00
7666;DHT22;3875;46.562;4.898;2023-02-28T03:36:04;0.70;73.10
7666;DHT22;3875;46.562;4.898;2023-02-28T03:38:48;0.70;73.00
7666;DHT22;3875;46.562;4.898;2023-02-28T03:41:38;0.70;72.90
7666;DHT22;3875;46.562;4.898;2023-02-28T03:44:11;0.70;73.00
7666;DHT22;3875;46.562;4.898;2023-02-28T03:46:44;0.60;73.20
7666;DHT22;3875;46.562;4.898;2023-02-28T03:49:18;0.60;73.10
7666;DHT22;3875;46.562;4.898;2023-02-28T03:51:47;0.60;73.10
7666;DHT22;3875;46.562;4.898;2023-02-28T03:54:19;0.60;73.10
7666;DHT22;3875;46.562;4.898;2023-02-28T03:56:53;0.60;73.20
7666;DHT22;3875;46.562;4.898;2023-02-28T03:59:33;0.50;73.10
7666;DHT22;3875;46.562;4.898;2023-02-28T04:02:00;0.50;73.20
7666;DHT22;3875;46.562;4.898;2023-02-28T04:04:26;0.50;73.10
7666;DHT22;3875;46.562;4.898;2023-02-28T04:06:53;0.50;73.00
7666;DHT22;3875;46.562;4.898;2023-02-28T04:09:26;0.40;73.20
7666;DHT22;3875;46.562;4.898;2023-02-28T04:11:52;0.40;73.10
7666;DHT22;3875;46.562;4.898;2023-02-28T04:14:18;0.40;73.20
7666;DHT22;3875;46.562;4.898;2023-02-28T04:16:44;0.40;73.30
7666;DHT22;3875;46.562;4.898;2023-02-28T04:19:11;0.40;73.20
7666;DHT22;3875;46.562;4.898;2023-02-28T04:21:40;0.30;73.30
7666;DHT22;3875;46.562;4.898;2023-02-28T04:24:07;0.30;73.40
7666;DHT22;3875;46.562;4.898;2023-02-28T04:26:36;0.30;73.30
7666;DHT22;3875;46.562;4.898;2023-02-28T04:29:04;0.30;73.30
7666;DHT22;3875;46.562;4.898;2023-02-28T04:31:30;0.30;73.40
7666;DHT22;3875;46.562;4.898;2023-02-28T04:33:56;0.20;73.30
7666;DHT22;3875;46.562;4.898;2023-02-28T04:36:22;0.30;73.40
7666;DHT22;3875;46.562;4.898;2023-02-28T04:38:48;0.30;73.40
7666;DHT22;3875;46.562;4.898;2023-02-28T04:41:15;0.20;73.50
7666;DHT22;3875;46.562;4.898;2023-02-28T04:43:41;0.20;73.50
7666;DHT22;3875;46.562;4.898;2023-02-28T04:46:07;0.20;73.70
7666;DHT22;3875;46.562;4.898;2023-02-28T04:48:35;0.10;73.60
7666;DHT22;3875;46.562;4.898;2023-02-28T04:51:06;0.10;73.70
7666;DHT22;3875;46.562;4.898;2023-02-28T04:53:32;0.10;73.70
7666;DHT22;3875;46.562;4.898;2023-02-28T04:55:58;0.10;73.70
7666;DHT22;3875;46.562;4.898;2023-02-28T04:58:24;0.10;73.70
7666;DHT22;3875;46.562;4.898;2023-02-28T05:00:51;0.10;73.70
7666;DHT22;3875;46.562;4.898;2023-02-28T05:03:17;0.10;73.70
7666;DHT22;3875;46.562;4.898;2023-02-28T05:05:43;0.10;73.70
7666;DHT22;3875;46.562;4.898;2023-02-28T05:08:09;0.10;73.70
7666;DHT22;3875;46.562;4.898;2023-02-28T05:10:35;0.10;73.70
7666;DHT22;3875;46.562;4.898;2023-02-28T05:13:01;0.10;73.70
7666;DHT22;3875;46.562;4.898;2023-02-28T05:15:27;0.00;73.80
7666;DHT22;3875;46.562;4.898;2023-02-28T05:17:52;0.00;73.70
7666;DHT22;3875;46.562;4.898;2023-02-28T05:20:18;0.10;73.80
7666;DHT22;3875;46.562;4.898;2023-02-28T05:22:44;0.00;73.80
7666;DHT22;3875;46.562;4.898;2023-02-28T05:25:16;0.00;73.70
7666;DHT22;3875;46.562;4.898;2023-02-28T05:27:42;0.00;73.80
7666;DHT22;3875;46.562;4.898;2023-02-28T05:30:08;0.00;73.90
7666;DHT22;3875;46.562;4.898;2023-02-28T05:32:39;0.00;73.90
7666;DHT22;3875;46.562;4.898;2023-02-28T05:35:10;0.00;73.80
7666;DHT22;3875;46.562;4.898;2023-02-28T05:37:36;0.00;73.80
7666;DHT22;3875;46.562;4.898;2023-02-28T05:40:03;0.00;73.70
7666;DHT22;3875;46.562;4.898;2023-02-28T05:42:31;0.00;73.80
7666;DHT22;3875;46.562;4.898;2023-02-28T05:44:57;0.00;73.70
7666;DHT22;3875;46.562;4.898;2023-02-28T05:47:23;0.00;73.60
7666;DHT22;3875;46.562;4.898;2023-02-28T05:49:48;0.00;73.70
7666;DHT22;3875;46.562;4.898;2023-02-28T05:52:14;0.00;73.60
7666;DHT22;3875;46.562;4.898;2023-02-28T05:54:40;0.00;73.70
7666;DHT22;3875;46.562;4.898;2023-02-28T05:57:06;0.00;73.70
7666;DHT22;3875;46.562;4.898;2023-02-28T05:59:32;0.00;73.60
7666;DHT22;3875;46.562;4.898;2023-02-28T06:01:58;0.00;73.70
7666;DHT22;3875;46.562;4.898;2023-02-28T06:04:23;0.00;73.70
7666;DHT22;3875;46.562;4.898;2023-02-28T06:06:50;0.00;73.80
7666;DHT22;3875;46.562;4.898;2023-02-28T06:09:16;0.00;73.70
7666;DHT22;3875;46.562;4.898;2023-02-28T06:11:42;0.00;73.70
7666;DHT22;3875;46.562;4.898;2023-02-28T06:14:17;0.00;73.80
7666;DHT22;3875;46.562;4.898;2023-02-28T06:16:43;0.00;73.80
7666;DHT22;3875;46.562;4.898;2023-02-28T06:19:09;0.00;73.90
7666;DHT22;3875;46.562;4.898;2023-02-28T06:21:35;0.00;74.00
7666;DHT22;3875;46.562;4.898;2023-02-28T06:24:01;0.00;74.10
7666;DHT22;3875;46.562;4.898;2023-02-28T06:26:27;0.00;74.10
7666;DHT22;3875;46.562;4.898;2023-02-28T06:28:53;0.00;74.30
7666;DHT22;3875;46.562;4.898;2023-02-28T06:31:19;0.00;74.30
7666;DHT22;3875;46.562;4.898;2023-02-28T06:33:45;0.00;74.40
7666;DHT22;3875;46.562;4.898;2023-02-28T06:36:12;0.00;74.50
7666;DHT22;3875;46.562;4.898;2023-02-28T06:38:39;0.00;74.50
7666;DHT22;3875;46.562;4.898;2023-02-28T06:41:05;0.00;74.50
7666;DHT22;3875;46.562;4.898;2023-02-28T06:43:38;0.10;74.60
7666;DHT22;3875;46.562;4.898;2023-02-28T06:46:07;0.10;74.50
7666;DHT22;3875;46.562;4.898;2023-02-28T06:48:33;0.10;74.50
7666;DHT22;3875;46.562;4.898;2023-02-28T06:51:07;0.20;74.40
7666;DHT22;3875;46.562;4.898;2023-02-28T06:53:33;0.20;74.40
7666;DHT22;3875;46.562;4.898;2023-02-28T06:55:59;0.20;74.50
7666;DHT22;3875;46.562;4.898;2023-02-28T06:58:25;0.30;74.60
7666;DHT22;3875;46.562;4.898;2023-02-28T07:00:52;0.40;74.50
7666;DHT22;3875;46.562;4.898;2023-02-28T07:03:18;0.40;74.60
7666;DHT22;3875;46.562;4.898;2023-02-28T07:05:44;0.40;74.20
7666;DHT22;3875;46.562;4.898;2023-02-28T07:08:11;0.50;74.30
7666;DHT22;3875;46.562;4.898;2023-02-28T07:10:40;0.60;74.30
7666;DHT22;3875;46.562;4.898;2023-02-28T07:13:07;0.70;74.00
7666;DHT22;3875;46.562;4.898;2023-02-28T07:15:34;0.80;73.60
7666;DHT22;3875;46.562;4.898;2023-02-28T07:18:00;0.90;73.70
7666;DHT22;3875;46.562;4.898;2023-02-28T07:20:26;1.00;73.20
7666;DHT22;3875;46.562;4.898;2023-02-28T07:22:52;1.00;73.20
7666;DHT22;3875;46.562;4.898;2023-02-28T07:25:25;1.10;73.00
7666;DHT22;3875;46.562;4.898;2023-02-28T07:27:51;1.10;72.60
7666;DHT22;3875;46.562;4.898;2023-02-28T07:30:18;1.10;72.80
7666;DHT22;3875;46.562;4.898;2023-02-28T07:32:44;1.00;72.80
7666;DHT22;3875;46.562;4.898;2023-02-28T07:35:09;1.10;73.40
7666;DHT22;3875;46.562;4.898;2023-02-28T07:37:35;1.10;72.70
7666;DHT22;3875;46.562;4.898;2023-02-28T07:40:05;1.10;72.90
7666;DHT22;3875;46.562;4.898;2023-02-28T07:42:35;1.10;73.10
7666;DHT22;3875;46.562;4.898;2023-02-28T07:45:01;1.10;73.40
7666;DHT22;3875;46.562;4.898;2023-02-28T07:47:29;1.20;72.80
7666;DHT22;3875;46.562;4.898;2023-02-28T07:49:55;1.20;72.60
7666;DHT22;3875;46.562;4.898;2023-02-28T07:52:21;1.20;72.40
7666;DHT22;3875;46.562;4.898;2023-02-28T07:54:48;1.40;72.10
7666;DHT22;3875;46.562;4.898;2023-02-28T07:57:14;1.60;71.80
7666;DHT22;3875;46.562;4.898;2023-02-28T07:59:40;1.80;71.50
7666;DHT22;3875;46.562;4.898;2023-02-28T08:02:06;1.90;71.40
7666;DHT22;3875;46.562;4.898;2023-02-28T08:04:32;2.00;71.00
7666;DHT22;3875;46.562;4.898;2023-02-28T08:06:58;2.00;70.50
7666;DHT22;3875;46.562;4.898;2023-02-28T08:09:24;2.10;70.20
7666;DHT22;3875;46.562;4.898;2023-02-28T08:11:50;2.10;70.40
7666;DHT22;3875;46.562;4.898;2023-02-28T08:14:15;2.00;70.30
7666;DHT22;3875;46.562;4.898;2023-02-28T08:16:41;2.10;70.20
7666;DHT22;3875;46.562;4.898;2023-02-28T08:19:08;2.30;70.40
7666;DHT22;3875;46.562;4.898;2023-02-28T08:21:34;2.40;69.60
7666;DHT22;3875;46.562;4.898;2023-02-28T08:24:00;2.50;69.40
7666;DHT22;3875;46.562;4.898;2023-02-28T08:26:26;2.50;69.30
7666;DHT22;3875;46.562;4.898;2023-02-28T08:28:52;2.50;69.20
7666;DHT22;3875;46.562;4.898;2023-02-28T08:31:18;2.40;69.20
7666;DHT22;3875;46.562;4.898;2023-02-28T08:33:44;2.40;69.20
7666;DHT22;3875;46.562;4.898;2023-02-28T08:36:11;2.40;69.30
7666;DHT22;3875;46.562;4.898;2023-02-28T08:38:37;2.40;69.00
7666;DHT22;3875;46.562;4.898;2023-02-28T08:41:10;2.40;69.40
7666;DHT22;3875;46.562;4.898;2023-02-28T08:43:36;2.50;69.30
7666;DHT22;3875;46.562;4.898;2023-02-28T08:46:02;2.50;69.40
7666;DHT22;3875;46.562;4.898;2023-02-28T08:48:30;2.70;69.20
7666;DHT22;3875;46.562;4.898;2023-02-28T08:50:57;2.90;69.20
7666;DHT22;3875;46.562;4.898;2023-02-28T08:53:23;3.10;68.90
7666;DHT22;3875;46.562;4.898;2023-02-28T08:55:59;3.10;68.20
7666;DHT22;3875;46.562;4.898;2023-02-28T08:58:26;3.10;68.60
7666;DHT22;3875;46.562;4.898;2023-02-28T09:00:52;3.10;68.40
7666;DHT22;3875;46.562;4.898;2023-02-28T09:03:18;2.90;68.30
7666;DHT22;3875;46.562;4.898;2023-02-28T09:05:57;2.80;68.50
7666;DHT22;3875;46.562;4.898;2023-02-28T09:08:24;3.00;69.00
7666;DHT22;3875;46.562;4.898;2023-02-28T09:10:51;3.20;68.30
7666;DHT22;3875;46.562;4.898;2023-02-28T09:13:18;3.40;68.00
7666;DHT22;3875;46.562;4.898;2023-02-28T09:15:44;3.60;67.40
7666;DHT22;3875;46.562;4.898;2023-02-28T09:18:10;3.70;68.00
7666;DHT22;3875;46.562;4.898;2023-02-28T09:20:40;3.90;66.90
7666;DHT22;3875;46.562;4.898;2023-02-28T09:23:07;3.90;67.20
7666;DHT22;3875;46.562;4.898;2023-02-28T09:25:33;3.90;66.60
7666;DHT22;3875;46.562;4.898;2023-02-28T09:27:59;3.80;66.90
7666;DHT22;3875;46.562;4.898;2023-02-28T09:30:25;4.00;67.40
7666;DHT22;3875;46.562;4.898;2023-02-28T09:32:51;4.00;66.40
7666;DHT22;3875;46.562;4.898;2023-02-28T09:35:24;4.00;66.80
7666;DHT22;3875;46.562;4.898;2023-02-28T09:37:52;4.10;67.10
7666;DHT22;3875;46.562;4.898;2023-02-28T09:40:20;4.20;66.70
7666;DHT22;3875;46.562;4.898;2023-02-28T09:42:48;4.30;66.60
7666;DHT22;3875;46.562;4.898;2023-02-28T09:45:34;4.40;66.60
7666;DHT22;3875;46.562;4.898;2023-02-28T09:48:14;4.50;66.20
7666;DHT22;3875;46.562;4.898;2023-02-28T09:50:55;4.50;66.20
7666;DHT22;3875;46.562;4.898;2023-02-28T09:53:29;4.40;65.90
7666;DHT22;3875;46.562;4.898;2023-02-28T09:56:07;4.30;66.30
7666;DHT22;3875;46.562;4.898;2023-02-28T09:59:01;4.10;66.10
7666;DHT22;3875;46.562;4.898;2023-02-28T10:02:02;4.10;67.10
7666;DHT22;3875;46.562;4.898;2023-02-28T10:09:48;4.30;66.70
7666;DHT22;3875;46.562;4.898;2023-02-28T10:12:16;4.20;66.70
7666;DHT22;3875;46.562;4.898;2023-02-28T10:14:46;4.10;67.20
7666;DHT22;3875;46.562;4.898;2023-02-28T10:17:16;4.00;67.70
7666;DHT22;3875;46.562;4.898;2023-02-28T10:25:39;4.00;68.10
7666;DHT22;3875;46.562;4.898;2023-02-28T10:28:11;4.10;67.90
7666;DHT22;3875;46.562;4.898;2023-02-28T10:30:50;4.30;67.80
7666;DHT22;3875;46.562;4.898;2023-02-28T10:33:29;4.40;67.60
7666;DHT22;3875;46.562;4.898;2023-02-28T10:35:56;4.40;67.30
7666;DHT22;3875;46.562;4.898;2023-02-28T10:38:33;4.60;67.60
7666;DHT22;3875;46.562;4.898;2023-02-28T10:41:11;4.70;66.90
7666;DHT22;3875;46.562;4.898;2023-02-28T10:43:39;4.90;66.70
7666;DHT22;3875;46.562;4.898;2023-02-28T10:46:15;5.00;66.40
7666;DHT22;3875;46.562;4.898;2023-02-28T10:49:03;4.90;66.20
7666;DHT22;3875;46.562;4.898;2023-02-28T10:51:36;5.00;66.20
7666;DHT22;3875;46.562;4.898;2023-02-28T10:54:02;5.40;65.70
7666;DHT22;3875;46.562;4.898;2023-02-28T10:56:29;5.70;65.40
7666;DHT22;3875;46.562;4.898;2023-02-28T10:59:28;5.80;65.60
7666;DHT22;3875;46.562;4.898;2023-02-28T11:01:54;5.90;64.80
7666;DHT22;3875;46.562;4.898;2023-02-28T11:04:31;6.10;64.50
7666;DHT22;3875;46.562;4.898;2023-02-28T11:07:18;6.10;64.20
7666;DHT22;3875;46.562;4.898;2023-02-28T11:09:49;6.50;64.00
7666;DHT22;3875;46.562;4.898;2023-02-28T11:12:38;6.60;63.30
7666;DHT22;3875;46.562;4.898;2023-02-28T11:15:28;7.00;63.40
7666;DHT22;3875;46.562;4.898;2023-02-28T11:18:01;7.00;62.20
7666;DHT22;3875;46.562;4.898;2023-02-28T11:20:30;7.20;62.80
7666;DHT22;3875;46.562;4.898;2023-02-28T11:22:58;7.40;62.10
7666;DHT22;3875;46.562;4.898;2023-02-28T11:25:33;7.60;61.40
7666;DHT22;3875;46.562;4.898;2023-02-28T11:28:33;7.30;61.40
7666;DHT22;3875;46.562;4.898;2023-02-28T11:31:17;7.10;61.70
7666;DHT22;3875;46.562;4.898;2023-02-28T11:33:50;7.30;62.00
7666;DHT22;3875;46.562;4.898;2023-02-28T11:38:46;7.60;62.10
7666;DHT22;3875;46.562;4.898;2023-02-28T11:44:23;7.80;60.90
7666;DHT22;3875;46.562;4.898;2023-02-28T11:49:55;7.20;61.00
7666;DHT22;3875;46.562;4.898;2023-02-28T11:55:19;7.10;62.50
7666;DHT22;3875;46.562;4.898;2023-02-28T12:03:39;7.90;60.20
7666;DHT22;3875;46.562;4.898;2023-02-28T12:06:44;7.60;61.50
7666;DHT22;3875;46.562;4.898;2023-02-28T12:09:04;7.20;61.40
7666;DHT22;3875;46.562;4.898;2023-02-28T12:17:25;7.10;63.10
7666;DHT22;3875;46.562;4.898;2023-02-28T12:20:08;7.60;61.80
7666;DHT22;3875;46.562;4.898;2023-02-28T12:22:55;7.80;62.20
7666;DHT22;3875;46.562;4.898;2023-02-28T12:25:50;8.00;61.40
7666;DHT22;3875;46.562;4.898;2023-02-28T12:28:24;7.70;61.60
7666;DHT22;3875;46.562;4.898;2023-02-28T12:34:00;7.10;62.10
7666;DHT22;3875;46.562;4.898;2023-02-28T12:36:27;7.00;62.60
7666;DHT22;3875;46.562;4.898;2023-02-28T12:39:01;7.00;63.30
7666;DHT22;3875;46.562;4.898;2023-02-28T12:44:32;6.80;63.70
7666;DHT22;3875;46.562;4.898;2023-02-28T12:47:03;7.10;63.20
7666;DHT22;3875;46.562;4.898;2023-02-28T12:52:12;7.00;63.00
7666;DHT22;3875;46.562;4.898;2023-02-28T12:55:15;6.80;63.90
7666;DHT22;3875;46.562;4.898;2023-02-28T12:57:43;6.60;63.50
7666;DHT22;3875;46.562;4.898;2023-02-28T13:00:19;6.40;64.30
7666;DHT22;3875;46.562;4.898;2023-02-28T13:08:27;7.10;63.40
7666;DHT22;3875;46.562;4.898;2023-02-28T13:10:57;7.00;62.70
7666;DHT22;3875;46.562;4.898;2023-02-28T13:13:25;6.80;63.50
7666;DHT22;3875;46.562;4.898;2023-02-28T13:18:46;7.30;63.00
7666;DHT22;3875;46.562;4.898;2023-02-28T13:21:30;7.20;62.80
7666;DHT22;3875;46.562;4.898;2023-02-28T13:24:08;6.90;63.40
7666;DHT22;3875;46.562;4.898;2023-02-28T13:34:28;6.30;64.90
7666;DHT22;3875;46.562;4.898;2023-02-28T13:42:47;6.70;65.80
7666;DHT22;3875;46.562;4.898;2023-02-28T13:45:24;6.90;64.40
7666;DHT22;3875;46.562;4.898;2023-02-28T13:50:40;6.80;64.00
7666;DHT22;3875;46.562;4.898;2023-02-28T13:58:51;6.10;65.40
7666;DHT22;3875;46.562;4.898;2023-02-28T14:07:08;5.80;66.20
7666;DHT22;3875;46.562;4.898;2023-02-28T14:09:46;5.90;66.80
7666;DHT22;3875;46.562;4.898;2023-02-28T14:15:58;6.00;66.10
7666;DHT22;3875;46.562;4.898;2023-02-28T14:18:36;6.10;66.30
7666;DHT22;3875;46.562;4.898;2023-02-28T14:21:35;5.90;66.10
7666;DHT22;3875;46.562;4.898;2023-02-28T14:29:36;5.70;66.40
7666;DHT22;3875;46.562;4.898;2023-02-28T14:38:21;5.60;67.20
7666;DHT22;3875;46.562;4.898;2023-02-28T14:40:52;5.60;66.90
7666;DHT22;3875;46.562;4.898;2023-02-28T14:43:26;5.50;67.40
7666;DHT22;3875;46.562;4.898;2023-02-28T14:45:55;5.50;67.50
7666;DHT22;3875;46.562;4.898;2023-02-28T14:48:23;5.60;66.90
7666;DHT22;3875;46.562;4.898;2023-02-28T14:51:01;5.50;67.00
7666;DHT22;3875;46.562;4.898;2023-02-28T14:53:35;5.40;67.30
7666;DHT22;3875;46.562;4.898;2023-02-28T14:56:01;5.40;68.00
7666;DHT22;3875;46.562;4.898;2023-02-28T14:58:28;5.40;67.10
7666;DHT22;3875;46.562;4.898;2023-02-28T15:01:01;5.40;67.20
7666;DHT22;3875;46.562;4.898;2023-02-28T15:03:38;5.40;67.40
7666;DHT22;3875;46.562;4.898;2023-02-28T15:06:12;5.50;67.70
7666;DHT22;3875;46.562;4.898;2023-02-28T15:08:38;5.50;67.30
7666;DHT22;3875;46.562;4.898;2023-02-28T15:13:41;5.60;67.50
7666;DHT22;3875;46.562;4.898;2023-02-28T15:16:16;5.60;67.40
7666;DHT22;3875;46.562;4.898;2023-02-28T15:21:27;5.50;67.50
7666;DHT22;3875;46.562;4.898;2023-02-28T15:24:07;5.50;67.50
7666;DHT22;3875;46.562;4.898;2023-02-28T15:26:42;5.60;67.90
7666;DHT22;3875;46.562;4.898;2023-02-28T15:29:15;5.50;67.50
7666;DHT22;3875;46.562;4.898;2023-02-28T15:32:05;5.50;67.40
7666;DHT22;3875;46.562;4.898;2023-02-28T15:34:38;5.70;67.50
7666;DHT22;3875;46.562;4.898;2023-02-28T15:39:53;5.80;67.20
7666;DHT22;3875;46.562;4.898;2023-02-28T15:42:21;5.80;67.20
7666;DHT22;3875;46.562;4.898;2023-02-28T15:44:47;5.70;67.20
7666;DHT22;3875;46.562;4.898;2023-02-28T15:47:21;5.70;67.40
7666;DHT22;3875;46.562;4.898;2023-02-28T15:49:51;5.70;67.40
7666;DHT22;3875;46.562;4.898;2023-02-28T15:52:21;5.80;67.60
7666;DHT22;3875;46.562;4.898;2023-02-28T15:54:48;5.80;67.20
7666;DHT22;3875;46.562;4.898;2023-02-28T15:57:19;5.80;67.40
7666;DHT22;3875;46.562;4.898;2023-02-28T15:59:57;5.60;67.60
7666;DHT22;3875;46.562;4.898;2023-02-28T16:02:36;5.40;67.50
7666;DHT22;3875;46.562;4.898;2023-02-28T16:07:52;5.30;68.50
7666;DHT22;3875;46.562;4.898;2023-02-28T16:10:17;5.30;68.20
7666;DHT22;3875;46.562;4.898;2023-02-28T16:12:43;5.30;68.10
7666;DHT22;3875;46.562;4.898;2023-02-28T16:15:21;5.20;68.00
7666;DHT22;3875;46.562;4.898;2023-02-28T16:17:48;5.10;68.60
7666;DHT22;3875;46.562;4.898;2023-02-28T16:20:17;5.00;68.70
7666;DHT22;3875;46.562;4.898;2023-02-28T16:22:43;4.90;69.00
7666;DHT22;3875;46.562;4.898;2023-02-28T16:25:13;4.90;69.20
7666;DHT22;3875;46.562;4.898;2023-02-28T16:27:40;4.90;68.90
7666;DHT22;3875;46.562;4.898;2023-02-28T16:30:09;4.80;69.60
7666;DHT22;3875;46.562;4.898;2023-02-28T16:32:39;4.80;69.80
7666;DHT22;3875;46.562;4.898;2023-02-28T16:35:09;4.80;69.50
7666;DHT22;3875;46.562;4.898;2023-02-28T16:37:36;4.80;69.60
7666;DHT22;3875;46.562;4.898;2023-02-28T16:40:03;4.70;69.50
7666;DHT22;3875;46.562;4.898;2023-02-28T16:42:31;4.70;69.60
7666;DHT22;3875;46.562;4.898;2023-02-28T16:44:57;4.70;69.40
7666;DHT22;3875;46.562;4.898;2023-02-28T16:47:23;4.70;69.50
7666;DHT22;3875;46.562;4.898;2023-02-28T16:49:52;4.60;69.90
7666;DHT22;3875;46.562;4.898;2023-02-28T16:52:18;4.50;69.80
7666;DHT22;3875;46.562;4.898;2023-02-28T16:54:44;4.50;70.10
7666;DHT22;3875;46.562;4.898;2023-02-28T16:57:21;4.40;70.20
7666;DHT22;3875;46.562;4.898;2023-02-28T16:59:49;4.40;70.50
7666;DHT22;3875;46.562;4.898;2023-02-28T17:02:18;4.40;70.60
7666;DHT22;3875;46.562;4.898;2023-02-28T17:04:47;4.40;70.60
7666;DHT22;3875;46.562;4.898;2023-02-28T17:07:14;4.40;70.50
7666;DHT22;3875;46.562;4.898;2023-02-28T17:09:41;4.40;70.60
7666;DHT22;3875;46.562;4.898;2023-02-28T17:12:08;4.30;70.70
7666;DHT22;3875;46.562;4.898;2023-02-28T17:14:37;4.30;70.80
7666;DHT22;3875;46.562;4.898;2023-02-28T17:17:05;4.20;71.10
7666;DHT22;3875;46.562;4.898;2023-02-28T17:19:31;4.20;71.20
7666;DHT22;3875;46.562;4.898;2023-02-28T17:21:56;4.10;71.30
7666;DHT22;3875;46.562;4.898;2023-02-28T17:24:22;4.10;71.40
7666;DHT22;3875;46.562;4.898;2023-02-28T17:26:48;4.10;71.70
7666;DHT22;3875;46.562;4.898;2023-02-28T17:29:17;4.10;71.80
7666;DHT22;3875;46.562;4.898;2023-02-28T17:31:43;4.00;72.00
7666;DHT22;3875;46.562;4.898;2023-02-28T17:34:10;4.00;72.20
7666;DHT22;3875;46.562;4.898;2023-02-28T17:36:37;4.00;72.50
7666;DHT22;3875;46.562;4.898;2023-02-28T17:39:05;4.00;72.70
7666;DHT22;3875;46.562;4.898;2023-02-28T17:41:34;3.90;72.90
7666;DHT22;3875;46.562;4.898;2023-02-28T17:44:03;3.90;73.00
7666;DHT22;3875;46.562;4.898;2023-02-28T17:46:30;3.90;73.10
7666;DHT22;3875;46.562;4.898;2023-02-28T17:48:59;3.90;73.40
7666;DHT22;3875;46.562;4.898;2023-02-28T17:51:25;3.90;73.40
7666;DHT22;3875;46.562;4.898;2023-02-28T17:53:51;3.90;73.40
7666;DHT22;3875;46.562;4.898;2023-02-28T17:56:22;3.90;73.50
7666;DHT22;3875;46.562;4.898;2023-02-28T17:58:49;3.80;73.60
7666;DHT22;3875;46.562;4.898;2023-02-28T18:01:19;3.80;73.80
7666;DHT22;3875;46.562;4.898;2023-02-28T18:03:49;3.80;74.10
7666;DHT22;3875;46.562;4.898;2023-02-28T18:08:51;3.70;74.40
7666;DHT22;3875;46.562;4.898;2023-02-28T18:11:19;3.60;74.50
7666;DHT22;3875;46.562;4.898;2023-02-28T18:13:50;3.60;74.60
7666;DHT22;3875;46.562;4.898;2023-02-28T18:16:17;3.60;74.60
7666;DHT22;3875;46.562;4.898;2023-02-28T18:18:43;3.50;74.80
7666;DHT22;3875;46.562;4.898;2023-02-28T18:21:10;3.40;74.90
7666;DHT22;3875;46.562;4.898;2023-02-28T18:23:36;3.40;74.90
7666;DHT22;3875;46.562;4.898;2023-02-28T18:26:06;3.40;74.90
7666;DHT22;3875;46.562;4.898;2023-02-28T18:28:32;3.30;75.10
7666;DHT22;3875;46.562;4.898;2023-02-28T18:31:05;3.30;75.30
7666;DHT22;3875;46.562;4.898;2023-02-28T18:33:31;3.20;75.40
7666;DHT22;3875;46.562;4.898;2023-02-28T18:35:57;3.10;75.60
7666;DHT22;3875;46.562;4.898;2023-02-28T18:38:23;3.10;75.50
7666;DHT22;3875;46.562;4.898;2023-02-28T18:40:56;3.10;75.50
7666;DHT22;3875;46.562;4.898;2023-02-28T18:43:24;3.10;75.50
7666;DHT22;3875;46.562;4.898;2023-02-28T18:45:50;3.00;75.60
7666;DHT22;3875;46.562;4.898;2023-02-28T18:48:16;3.00;75.60
7666;DHT22;3875;46.562;4.898;2023-02-28T18:50:47;2.90;75.70